Time;durP1;ratioP1;P1;durP2;ratioP2;P2;SDS_P1;SDS_P2;PMS_P1;PMS_P2;Temp;Humidity;BMP_temperature;BMP_pressure;BME280_temperature;BME280_humidity;BME280_pressure;Samples;Min_cycle;Max_cycle;Signal;HPM_P1;HPM_P2
2022/01/05 00:01:13;;;;;;;10.93;6.03;;;8.80;99.90;;;;;;5135684;27;20233;-63
2022/01/05 00:03:42;;;;;;;4.53;4.05;;;8.80;99.90;;;;;;5132743;27;20250;-63
2022/01/05 00:06:08;;;;;;;4.90;3.78;;;8.80;99.90;;;;;;5122084;27;20224;-63
2022/01/05 00:08:35;;;;;;;7.18;3.90;;;8.90;99.90;;;;;;5135174;27;20238;-63
2022/01/05 00:11:02;;;;;;;6.90;3.30;;;8.80;99.90;;;;;;5135754;27;20227;-62
2022/01/05 00:13:29;;;;;;;8.38;4.80;;;8.80;99.90;;;;;;5135102;27;20228;-62
2022/01/05 00:15:56;;;;;;;6.43;4.35;;;8.80;99.90;;;;;;5135808;27;20227;-63
2022/01/05 00:18:22;;;;;;;4.95;3.50;;;8.80;99.90;;;;;;5135342;27;20235;-63
2022/01/05 00:20:51;;;;;;;4.78;4.18;;;8.80;99.90;;;;;;5134993;27;20232;-63
2022/01/05 00:23:17;;;;;;;8.32;4.00;;;8.80;99.90;;;;;;5135285;27;20236;-63
2022/01/05 00:25:45;;;;;;;4.00;2.72;;;8.80;99.90;;;;;;5134906;27;20693;-63
2022/01/05 00:28:11;;;;;;;4.13;3.40;;;8.80;99.90;;;;;;5135260;27;20555;-63
2022/01/05 00:30:38;;;;;;;7.05;3.88;;;8.80;99.90;;;;;;5134881;27;20304;-63
2022/01/05 00:33:06;;;;;;;4.80;3.33;;;8.70;99.90;;;;;;5134348;27;20227;-63
2022/01/05 00:35:33;;;;;;;3.65;3.15;;;8.70;99.90;;;;;;5134889;27;20224;-63
2022/01/05 00:38:01;;;;;;;7.00;3.63;;;8.70;99.90;;;;;;5123567;27;20241;-63
2022/01/05 00:40:28;;;;;;;3.78;2.97;;;8.70;99.90;;;;;;5134587;27;20231;-62
2022/01/05 00:42:55;;;;;;;3.78;2.92;;;8.80;99.90;;;;;;5121548;27;20254;-62
2022/01/05 00:45:22;;;;;;;4.85;3.20;;;8.80;99.90;;;;;;5134741;27;20220;-63
2022/01/05 00:47:49;;;;;;;6.07;2.63;;;8.80;99.90;;;;;;5133300;27;20259;-63
2022/01/05 00:50:16;;;;;;;4.75;2.50;;;8.80;99.90;;;;;;5134777;27;20232;-63
2022/01/05 00:52:43;;;;;;;8.93;3.88;;;8.80;99.90;;;;;;5134378;27;20239;-63
2022/01/05 00:55:11;;;;;;;3.28;2.03;;;8.80;99.90;;;;;;5129857;27;20550;-63
2022/01/05 00:57:38;;;;;;;4.32;3.92;;;8.80;99.90;;;;;;5134076;27;20222;-63
2022/01/05 01:00:06;;;;;;;4.20;3.28;;;8.80;99.90;;;;;;5134486;27;20695;-63
2022/01/05 01:02:33;;;;;;;3.75;2.80;;;8.80;99.90;;;;;;5134141;27;20299;-61
2022/01/05 01:05:00;;;;;;;5.28;3.80;;;8.80;99.90;;;;;;5093564;28;20229;-63
2022/01/05 01:07:27;;;;;;;5.40;2.92;;;8.90;99.90;;;;;;5093489;28;20229;-63
2022/01/05 01:09:53;;;;;;;5.20;2.85;;;8.90;99.90;;;;;;5092959;28;20225;-63
2022/01/05 01:12:22;;;;;;;4.03;3.03;;;8.90;99.90;;;;;;5093723;28;20571;-63
2022/01/05 01:14:48;;;;;;;4.72;2.90;;;8.90;99.90;;;;;;5092996;28;20591;-62
2022/01/05 01:17:15;;;;;;;2.00;1.80;;;8.90;99.90;;;;;;5093408;28;20231;-62
2022/01/05 01:19:42;;;;;;;3.47;2.33;;;8.90;99.90;;;;;;5092728;28;20309;-62
2022/01/05 01:22:09;;;;;;;4.88;2.20;;;8.90;99.90;;;;;;5093267;28;20244;-63
2022/01/05 01:24:36;;;;;;;5.43;2.78;;;8.90;99.90;;;;;;5092848;28;20217;-63
2022/01/05 01:27:03;;;;;;;5.80;2.33;;;8.90;99.90;;;;;;5093066;28;20230;-62
2022/01/05 01:29:31;;;;;;;3.88;1.77;;;8.90;99.90;;;;;;5092941;28;20232;-62
2022/01/05 01:31:58;;;;;;;7.22;2.63;;;8.80;99.90;;;;;;5092898;28;20220;-63
2022/01/05 01:34:25;;;;;;;2.92;2.63;;;8.80;99.90;;;;;;5092248;28;20222;-62
2022/01/05 01:36:52;;;;;;;3.13;2.35;;;8.80;99.90;;;;;;5084337;28;20220;-63
2022/01/05 01:39:19;;;;;;;4.13;2.67;;;8.80;99.90;;;;;;5089772;28;20220;-63
2022/01/05 01:41:45;;;;;;;4.60;2.63;;;8.80;99.90;;;;;;5092575;28;20229;-63
2022/01/05 01:44:12;;;;;;;2.80;2.20;;;8.80;99.90;;;;;;5092866;28;20248;-62
2022/01/05 01:46:41;;;;;;;5.57;2.38;;;8.80;99.90;;;;;;5092581;28;20252;-63
2022/01/05 01:49:08;;;;;;;5.50;2.70;;;8.80;99.90;;;;;;5092896;28;20236;-63
2022/01/05 01:51:35;;;;;;;2.50;1.85;;;8.80;99.90;;;;;;5092947;28;20228;-62
2022/01/05 01:54:03;;;;;;;2.63;2.40;;;8.80;99.90;;;;;;5092458;28;20217;-63
2022/01/05 01:56:34;;;;;;;3.83;2.00;;;8.80;99.90;;;;;;5085688;28;20240;-63
2022/01/05 01:59:01;;;;;;;4.47;2.00;;;8.80;99.90;;;;;;5092101;28;20226;-63
2022/01/05 02:01:28;;;;;;;2.67;1.85;;;8.80;99.90;;;;;;5092918;28;20220;-62
2022/01/05 02:03:56;;;;;;;1.90;1.67;;;8.80;99.90;;;;;;5115032;27;20225;-63
2022/01/05 02:06:23;;;;;;;5.20;2.05;;;8.70;99.90;;;;;;5133533;27;20225;-63
2022/01/05 02:08:50;;;;;;;2.80;1.80;;;8.70;99.90;;;;;;5119473;27;20677;-63
2022/01/05 02:11:18;;;;;;;4.35;2.35;;;8.70;99.90;;;;;;5133456;27;20220;-63
2022/01/05 02:13:45;;;;;;;2.30;2.10;;;8.70;99.90;;;;;;5132918;27;20263;-63
2022/01/05 02:16:13;;;;;;;2.83;1.85;;;8.70;99.90;;;;;;5133424;27;20314;-63
2022/01/05 02:18:59;;;;;;;3.45;1.95;;;8.70;99.90;;;;;;5133003;27;20215;-63
2022/01/05 02:21:28;;;;;;;4.03;2.08;;;8.70;99.90;;;;;;5133286;27;20245;-63
2022/01/05 02:23:54;;;;;;;6.40;2.28;;;8.80;99.90;;;;;;5132963;27;20230;-63
2022/01/05 02:26:21;;;;;;;2.97;1.95;;;8.70;99.90;;;;;;5133447;27;20218;-63
2022/01/05 02:28:48;;;;;;;2.20;1.48;;;8.70;99.90;;;;;;5132983;27;20299;-62
2022/01/05 02:31:15;;;;;;;5.60;1.80;;;8.80;99.90;;;;;;5133300;27;20233;-63
2022/01/05 02:33:42;;;;;;;4.53;1.80;;;8.80;99.90;;;;;;5132016;27;20225;-63
2022/01/05 02:36:12;;;;;;;4.00;1.80;;;8.80;99.90;;;;;;5133167;27;20243;-62
2022/01/05 02:38:40;;;;;;;3.60;1.90;;;8.70;99.90;;;;;;5125072;27;20253;-63
2022/01/05 02:41:08;;;;;;;5.68;2.15;;;8.70;99.90;;;;;;5132827;27;20215;-63
2022/01/05 02:43:36;;;;;;;3.38;2.08;;;8.70;99.90;;;;;;5133305;27;20231;-63
2022/01/05 02:46:04;;;;;;;5.38;2.45;;;8.80;99.90;;;;;;5132776;27;20227;-63
2022/01/05 02:48:32;;;;;;;3.85;1.73;;;8.80;99.90;;;;;;5133084;27;20224;-63
2022/01/05 02:51:00;;;;;;;2.38;1.30;;;8.90;99.90;;;;;;5132603;27;20234;-62
2022/01/05 02:53:27;;;;;;;4.35;1.67;;;8.80;99.90;;;;;;5133239;27;20219;-63
2022/01/05 02:55:55;;;;;;;4.80;1.60;;;8.80;99.90;;;;;;5127044;27;20692;-62
2022/01/05 02:58:22;;;;;;;7.32;2.10;;;8.90;99.90;;;;;;5132769;27;20268;-63
2022/01/05 03:00:49;;;;;;;3.20;2.00;;;8.90;99.90;;;;;;5132701;27;20728;-62
2022/01/05 03:03:16;;;;;;;5.55;2.22;;;8.80;99.90;;;;;;5132996;27;20421;-63
2022/01/05 03:05:43;;;;;;;4.68;2.50;;;8.80;99.90;;;;;;5121067;27;20224;-62
2022/01/05 03:08:10;;;;;;;5.78;2.40;;;8.80;99.90;;;;;;5132519;27;20951;-63
2022/01/05 03:10:37;;;;;;;9.60;2.75;;;8.80;99.90;;;;;;5133177;27;20579;-63
2022/01/05 03:13:06;;;;;;;4.88;1.83;;;8.80;99.90;;;;;;5136227;27;20219;-63
2022/01/05 03:15:35;;;;;;;2.42;1.73;;;8.80;99.90;;;;;;5136862;27;20226;-62
2022/01/05 03:18:02;;;;;;;1.85;1.20;;;8.90;99.90;;;;;;5136259;27;20301;-62
2022/01/05 03:20:30;;;;;;;3.92;2.20;;;8.80;99.90;;;;;;5136536;27;20228;-63
2022/01/05 03:22:57;;;;;;;3.47;1.77;;;8.80;99.90;;;;;;5136180;27;20251;-63
2022/01/05 03:25:25;;;;;;;4.95;2.10;;;8.80;99.90;;;;;;5136570;27;20236;-62
2022/01/05 03:27:53;;;;;;;6.63;1.98;;;8.80;99.90;;;;;;5135920;27;20231;-62
2022/01/05 03:30:25;;;;;;;3.80;1.65;;;8.70;99.90;;;;;;5136471;27;20227;-63
2022/01/05 03:33:08;;;;;;;5.65;1.65;;;8.80;99.90;;;;;;5135054;27;20215;-63
2022/01/05 03:35:37;;;;;;;9.77;1.90;;;8.70;99.90;;;;;;5136302;27;20310;-63
2022/01/05 03:38:05;;;;;;;5.93;2.05;;;8.70;99.90;;;;;;5122160;27;20227;-63
2022/01/05 03:40:34;;;;;;;3.45;2.10;;;8.70;99.90;;;;;;5136269;27;20229;-63
2022/01/05 03:43:02;;;;;;;5.35;2.28;;;8.70;99.90;;;;;;5135664;27;20219;-63
2022/01/05 03:45:30;;;;;;;8.02;1.73;;;8.80;99.90;;;;;;5136043;27;20718;-63
2022/01/05 03:47:57;;;;;;;1.98;1.73;;;8.70;99.90;;;;;;5135630;27;20611;-63
2022/01/05 03:50:24;;;;;;;3.10;1.83;;;8.70;99.90;;;;;;5136029;27;20244;-63
2022/01/05 03:52:51;;;;;;;14.35;2.58;;;8.70;99.90;;;;;;5135590;27;20219;-64
2022/01/05 03:55:17;;;;;;;3.45;2.10;;;8.70;99.90;;;;;;5131112;27;20228;-64
2022/01/05 03:57:44;;;;;;;6.15;2.15;;;8.70;99.90;;;;;;5135816;27;20223;-63
2022/01/05 04:00:12;;;;;;;2.97;1.65;;;8.70;99.90;;;;;;5135393;27;20224;-63
2022/01/05 04:02:41;;;;;;;4.93;1.85;;;8.60;99.90;;;;;;5135750;27;20287;-63
2022/01/05 04:05:08;;;;;;;5.03;2.92;;;8.70;99.90;;;;;;5135164;27;20693;-63
2022/01/05 04:07:35;;;;;;;7.45;2.38;;;8.70;99.90;;;;;;5135701;27;20224;-63
2022/01/05 04:10:02;;;;;;;5.45;2.13;;;8.70;99.90;;;;;;5135110;27;20231;-63
2022/01/05 04:12:29;;;;;;;6.38;3.17;;;8.60;99.90;;;;;;5135750;27;20219;-63
2022/01/05 04:14:56;;;;;;;6.63;1.70;;;8.70;99.90;;;;;;5135209;27;20223;-63
2022/01/05 04:17:23;;;;;;;5.97;1.88;;;8.70;99.90;;;;;;5135549;27;20220;-63
2022/01/05 04:19:51;;;;;;;6.18;2.80;;;8.70;99.90;;;;;;5134795;27;20224;-63
2022/01/05 04:22:18;;;;;;;3.33;2.30;;;8.70;99.90;;;;;;5133338;27;21006;-64
2022/01/05 04:24:44;;;;;;;7.28;2.78;;;8.70;99.90;;;;;;5132706;27;20232;-64
2022/01/05 04:27:11;;;;;;;4.32;2.13;;;8.70;99.90;;;;;;5133684;27;20225;-64
2022/01/05 04:29:38;;;;;;;5.10;2.60;;;8.70;99.90;;;;;;5134329;27;20244;-64
2022/01/05 04:32:06;;;;;;;4.78;1.80;;;8.70;99.90;;;;;;5133862;27;20244;-64
2022/01/05 04:34:33;;;;;;;7.25;2.20;;;8.70;99.90;;;;;;5133784;27;20243;-63
2022/01/05 04:37:01;;;;;;;2.17;1.85;;;8.70;99.90;;;;;;5128558;27;20227;-63
2022/01/05 04:39:28;;;;;;;6.05;2.55;;;8.70;99.90;;;;;;5132892;27;20239;-64
2022/01/05 04:41:55;;;;;;;3.45;1.80;;;8.70;99.90;;;;;;5133107;27;20741;-63
2022/01/05 04:44:21;;;;;;;11.55;1.73;;;8.70;99.90;;;;;;5132966;27;20247;-63
2022/01/05 04:46:48;;;;;;;6.80;3.60;;;8.70;99.90;;;;;;5133211;27;20309;-64
2022/01/05 04:49:15;;;;;;;11.50;2.13;;;8.70;99.90;;;;;;5132449;27;20322;-64
2022/01/05 04:51:42;;;;;;;6.45;1.90;;;8.70;99.90;;;;;;5132946;27;20219;-64
2022/01/05 04:54:10;;;;;;;3.88;1.90;;;8.70;99.90;;;;;;5132504;27;20686;-63
2022/01/05 04:56:37;;;;;;;2.40;1.73;;;8.70;99.90;;;;;;5133662;27;20243;-64
2022/01/05 04:59:04;;;;;;;6.20;2.15;;;8.70;99.90;;;;;;5133308;27;20244;-64
2022/01/05 05:01:31;;;;;;;9.25;1.95;;;8.60;99.90;;;;;;5134081;27;20270;-63
2022/01/05 05:03:58;;;;;;;5.43;2.15;;;8.60;99.90;;;;;;5129106;27;20251;-63
2022/01/05 05:06:25;;;;;;;4.68;1.98;;;8.50;99.90;;;;;;5127582;27;20241;-63
2022/01/05 05:08:52;;;;;;;3.63;2.20;;;8.60;99.90;;;;;;5134059;27;20306;-63
2022/01/05 05:11:20;;;;;;;4.40;1.73;;;8.50;99.90;;;;;;5134091;27;20247;-63
2022/01/05 05:13:47;;;;;;;3.90;1.77;;;8.50;99.90;;;;;;5120913;27;20229;-64
2022/01/05 05:16:14;;;;;;;2.28;1.50;;;8.40;99.90;;;;;;5119837;27;20235;-63
2022/01/05 05:18:40;;;;;;;7.13;2.50;;;8.40;99.90;;;;;;5134544;27;20347;-63
2022/01/05 05:21:07;;;;;;;4.47;1.45;;;8.40;99.90;;;;;;5133640;27;20231;-63
2022/01/05 05:23:34;;;;;;;3.08;1.67;;;8.40;99.90;;;;;;5134149;27;20227;-63
2022/01/05 05:26:01;;;;;;;5.40;1.95;;;8.40;99.90;;;;;;5133768;27;20223;-63
2022/01/05 05:28:29;;;;;;;3.45;2.00;;;8.40;99.90;;;;;;5134257;27;20227;-63
2022/01/05 05:30:56;;;;;;;8.95;1.52;;;8.30;99.90;;;;;;5134112;27;20227;-63
2022/01/05 05:33:23;;;;;;;7.30;1.45;;;8.30;99.90;;;;;;5133423;27;20691;-63
2022/01/05 05:35:50;;;;;;;3.75;1.58;;;8.30;99.90;;;;;;5134010;27;20224;-63
2022/01/05 05:38:17;;;;;;;2.28;1.25;;;8.30;99.90;;;;;;5133553;27;20233;-63
2022/01/05 05:40:44;;;;;;;8.93;1.70;;;8.30;99.90;;;;;;5134011;27;20227;-63
2022/01/05 05:43:11;;;;;;;5.28;1.50;;;8.30;99.90;;;;;;5133510;27;20228;-63
2022/01/05 05:45:40;;;;;;;2.33;1.50;;;8.20;99.90;;;;;;5134009;27;20225;-63
2022/01/05 05:48:07;;;;;;;4.95;3.90;;;8.20;99.90;;;;;;5133328;27;20231;-63
2022/01/05 05:50:34;;;;;;;7.53;3.38;;;8.10;99.90;;;;;;5133776;27;20219;-63
2022/01/05 05:53:01;;;;;;;10.02;4.72;;;8.10;99.90;;;;;;5133289;27;20232;-63
2022/01/05 05:55:27;;;;;;;6.20;4.20;;;8.10;99.90;;;;;;5133859;27;20229;-63
2022/01/05 05:57:54;;;;;;;5.47;3.03;;;8.20;99.90;;;;;;5133624;27;20215;-63
2022/01/05 06:00:21;;;;;;;6.45;2.83;;;8.20;99.90;;;;;;5133297;27;20238;-63
2022/01/05 06:02:50;;;;;;;8.02;2.60;;;8.30;99.90;;;;;;5133461;27;20232;-63
2022/01/05 06:05:17;;;;;;;5.85;4.03;;;8.30;99.90;;;;;;5133140;27;20222;-63
2022/01/05 06:07:44;;;;;;;11.18;3.88;;;8.30;99.90;;;;;;5133403;27;20223;-63
2022/01/05 06:10:11;;;;;;;18.30;10.52;;;8.30;99.90;;;;;;5132994;27;20235;-63
2022/01/05 06:12:38;;;;;;;6.85;3.65;;;8.20;99.90;;;;;;5133468;27;20237;-63
2022/01/05 06:15:06;;;;;;;8.52;4.22;;;8.30;99.90;;;;;;5133173;27;20232;-63
2022/01/05 06:17:33;;;;;;;5.10;2.85;;;8.20;99.90;;;;;;5133464;27;20562;-63
2022/01/05 06:20:04;;;;;;;6.00;2.38;;;8.20;99.90;;;;;;5133554;27;20232;-63
2022/01/05 06:22:30;;;;;;;3.83;2.30;;;8.20;99.90;;;;;;5133220;27;20219;-63
2022/01/05 06:24:57;;;;;;;8.90;2.85;;;8.20;99.90;;;;;;5133444;27;20246;-63
2022/01/05 06:27:24;;;;;;;6.10;3.28;;;8.20;99.90;;;;;;5133077;27;20574;-63
2022/01/05 06:29:52;;;;;;;4.05;2.13;;;8.20;99.90;;;;;;5133407;27;20228;-63
2022/01/05 06:32:19;;;;;;;5.78;3.03;;;8.20;99.90;;;;;;5132908;27;20684;-63
2022/01/05 06:34:45;;;;;;;8.73;2.30;;;8.20;99.90;;;;;;5133478;27;20570;-63
2022/01/05 06:37:16;;;;;;;10.48;2.85;;;8.30;99.90;;;;;;5132759;27;20224;-63
2022/01/05 06:39:43;;;;;;;4.95;2.40;;;8.20;99.90;;;;;;5133183;27;20234;-63
2022/01/05 06:42:10;;;;;;;7.18;2.70;;;8.20;99.90;;;;;;5133028;27;20215;-63
2022/01/05 06:44:37;;;;;;;5.07;2.40;;;8.20;99.90;;;;;;5133097;27;20229;-63
2022/01/05 06:47:04;;;;;;;6.28;2.65;;;8.30;99.90;;;;;;5135981;27;20226;-63
2022/01/05 06:49:32;;;;;;;5.78;2.38;;;8.20;99.90;;;;;;5136709;27;20219;-63
2022/01/05 06:51:58;;;;;;;5.85;2.90;;;8.20;99.90;;;;;;5137088;27;20227;-63
2022/01/05 06:54:27;;;;;;;6.53;2.30;;;8.30;99.90;;;;;;5136575;27;20227;-63
2022/01/05 06:56:54;;;;;;;5.20;2.40;;;8.20;99.90;;;;;;5137254;27;20223;-63
2022/01/05 06:59:20;;;;;;;5.88;3.20;;;8.30;99.90;;;;;;5136377;27;20223;-63
2022/01/05 07:01:47;;;;;;;3.50;2.60;;;8.30;99.90;;;;;;5136926;27;20236;-63
2022/01/05 07:04:14;;;;;;;5.47;2.80;;;8.30;99.90;;;;;;5136319;27;20228;-62
2022/01/05 07:06:41;;;;;;;6.90;2.45;;;8.30;99.90;;;;;;5136839;27;20223;-63
2022/01/05 07:09:08;;;;;;;5.32;2.70;;;8.30;99.90;;;;;;5136662;27;20238;-63
2022/01/05 07:11:36;;;;;;;5.65;2.60;;;8.20;99.90;;;;;;5136546;27;20225;-63
2022/01/05 07:14:05;;;;;;;12.20;4.20;;;8.20;99.90;;;;;;5136744;27;20787;-63
2022/01/05 07:16:32;;;;;;;7.15;2.72;;;8.20;99.90;;;;;;5136126;27;20228;-63
2022/01/05 07:18:59;;;;;;;9.60;3.05;;;8.20;99.90;;;;;;5136686;27;20225;-63
2022/01/05 07:21:25;;;;;;;6.28;3.45;;;8.20;99.90;;;;;;5136087;27;20238;-63
2022/01/05 07:23:52;;;;;;;9.73;3.00;;;8.20;99.90;;;;;;5136621;27;20226;-63
2022/01/05 07:26:19;;;;;;;8.32;3.67;;;8.20;99.90;;;;;;5136160;27;20227;-63
2022/01/05 07:28:48;;;;;;;10.10;3.10;;;8.20;99.90;;;;;;5136369;27;20731;-63
2022/01/05 07:31:14;;;;;;;8.25;3.65;;;8.20;99.90;;;;;;5136076;27;20374;-63
2022/01/05 07:33:41;;;;;;;7.30;2.90;;;8.20;99.90;;;;;;5136327;27;20215;-63
2022/01/05 07:36:08;;;;;;;6.50;3.03;;;8.20;99.90;;;;;;5136514;27;20241;-63
2022/01/05 07:38:35;;;;;;;9.43;2.75;;;8.20;99.90;;;;;;5135699;27;20222;-63
2022/01/05 07:41:02;;;;;;;4.63;2.35;;;8.20;99.90;;;;;;5136203;27;20238;-63
2022/01/05 07:43:28;;;;;;;6.90;2.50;;;8.20;99.90;;;;;;5135765;27;20564;-63
2022/01/05 07:45:57;;;;;;;7.95;3.08;;;8.20;99.90;;;;;;5136303;27;20227;-63
2022/01/05 07:48:24;;;;;;;7.75;2.65;;;8.10;99.90;;;;;;5135467;27;20227;-63
2022/01/05 07:50:50;;;;;;;6.53;3.30;;;8.10;99.90;;;;;;5136006;27;20708;-63
2022/01/05 07:53:17;;;;;;;5.13;2.08;;;8.10;99.90;;;;;;5135522;27;20310;-63
2022/01/05 07:55:44;;;;;;;3.83;2.40;;;8.10;99.90;;;;;;5136056;27;20229;-63
2022/01/05 07:58:11;;;;;;;4.68;2.95;;;8.10;99.90;;;;;;5135410;27;20223;-63
2022/01/05 08:00:38;;;;;;;6.60;3.28;;;8.10;99.90;;;;;;5135473;27;20237;-63
2022/01/05 08:03:06;;;;;;;15.40;2.80;;;8.10;99.90;;;;;;5135657;27;20249;-63
2022/01/05 08:05:33;;;;;;;6.68;3.08;;;8.10;99.90;;;;;;5135286;27;20234;-62
2022/01/05 08:08:00;;;;;;;11.02;2.17;;;8.10;99.90;;;;;;5135696;27;20220;-63
2022/01/05 08:10:27;;;;;;;5.22;2.55;;;8.10;99.90;;;;;;5135052;27;20225;-63
2022/01/05 08:12:54;;;;;;;5.53;2.20;;;8.10;99.90;;;;;;5121969;27;20244;-63
2022/01/05 08:15:21;;;;;;;6.10;1.98;;;8.10;99.90;;;;;;5132894;27;20694;-63
2022/01/05 08:17:48;;;;;;;6.15;3.03;;;8.20;99.90;;;;;;5135603;27;20219;-63
2022/01/05 08:20:16;;;;;;;7.00;2.22;;;8.20;99.90;;;;;;5135421;27;20228;-63
2022/01/05 08:22:44;;;;;;;7.03;2.35;;;8.20;99.90;;;;;;5135120;27;20216;-63
2022/01/05 08:25:13;;;;;;;4.95;2.00;;;8.20;99.90;;;;;;5135274;27;20243;-63
2022/01/05 08:27:46;;;;;;;5.65;2.47;;;8.20;99.90;;;;;;5135006;27;20216;-62
2022/01/05 08:30:14;;;;;;;9.23;2.08;;;8.20;99.90;;;;;;5135173;27;20303;-63
2022/01/05 08:32:41;;;;;;;4.55;2.47;;;8.20;99.90;;;;;;5134792;27;20229;-64
2022/01/05 08:35:10;;;;;;;8.05;2.60;;;8.20;99.90;;;;;;5135170;27;20711;-64
2022/01/05 08:37:38;;;;;;;4.00;2.40;;;8.10;99.90;;;;;;5134773;27;20615;-64
2022/01/05 08:40:07;;;;;;;5.80;2.67;;;8.10;99.90;;;;;;5135007;27;20296;-64
2022/01/05 08:42:34;;;;;;;7.07;4.05;;;8.10;99.90;;;;;;5134721;27;20301;-64
2022/01/05 08:45:01;;;;;;;12.05;4.65;;;8.10;99.90;;;;;;5135009;27;20245;-64
2022/01/05 08:47:27;;;;;;;6.72;4.20;;;8.10;99.90;;;;;;5134468;27;20231;-64
2022/01/05 08:49:54;;;;;;;7.20;4.60;;;8.10;99.90;;;;;;5134720;27;20229;-64
2022/01/05 08:52:25;;;;;;;11.02;4.60;;;8.10;99.90;;;;;;5134420;27;20235;-64
2022/01/05 08:54:53;;;;;;;6.90;4.93;;;8.10;99.60;;;;;;5134665;27;20284;-64
2022/01/05 08:57:20;;;;;;;8.85;4.10;;;8.10;99.60;;;;;;5134963;27;20218;-64
2022/01/05 08:59:47;;;;;;;5.88;3.15;;;8.00;99.40;;;;;;5134175;27;20234;-64
2022/01/05 09:02:15;;;;;;;9.07;3.75;;;8.00;99.40;;;;;;5134740;27;20266;-63
2022/01/05 09:04:42;;;;;;;7.55;2.63;;;8.00;99.40;;;;;;5120257;27;20822;-64
2022/01/05 09:07:10;;;;;;;6.75;3.15;;;8.00;99.40;;;;;;5134289;27;20694;-64
2022/01/05 09:09:36;;;;;;;6.05;3.20;;;8.00;99.50;;;;;;5133212;27;20227;-64
2022/01/05 09:12:06;;;;;;;5.93;3.10;;;8.10;99.40;;;;;;5134405;27;20231;-64
2022/01/05 09:14:33;;;;;;;9.07;3.83;;;8.10;98.90;;;;;;5133738;27;20223;-64
2022/01/05 09:16:59;;;;;;;6.15;2.75;;;8.10;98.90;;;;;;5131141;27;20280;-64
2022/01/05 09:19:28;;;;;;;8.43;2.75;;;8.10;98.70;;;;;;5133892;27;20220;-64
2022/01/05 09:21:55;;;;;;;6.35;2.53;;;8.10;98.80;;;;;;5134302;27;20227;-64
2022/01/05 09:24:22;;;;;;;12.30;3.40;;;8.10;98.90;;;;;;5120568;27;20226;-64
2022/01/05 09:26:49;;;;;;;10.13;3.20;;;8.20;98.50;;;;;;5133936;27;20215;-64
2022/01/05 09:29:17;;;;;;;8.93;2.67;;;8.20;98.50;;;;;;5134186;27;20565;-64
2022/01/05 09:31:45;;;;;;;6.05;2.92;;;8.20;98.30;;;;;;5133578;27;20238;-64
2022/01/05 09:34:12;;;;;;;6.82;3.15;;;8.20;98.40;;;;;;5134331;27;20236;-62
2022/01/05 09:36:43;;;;;;;8.35;4.03;;;8.20;98.10;;;;;;5133559;27;20233;-64
2022/01/05 09:41:58;;;;;;;13.68;5.32;;;8.10;98.00;;;;;;5133699;27;20221;-64
2022/01/05 09:44:30;;;;;;;6.53;3.35;;;8.10;97.80;;;;;;5134075;27;20212;-62
2022/01/05 09:47:15;;;;;;;7.55;2.85;;;8.20;97.90;;;;;;5133114;27;20214;-62
2022/01/05 09:49:49;;;;;;;6.95;3.03;;;8.20;97.80;;;;;;5133324;27;20230;-62
2022/01/05 09:52:16;;;;;;;8.90;2.60;;;8.20;97.50;;;;;;5133592;27;20306;-63
2022/01/05 09:54:43;;;;;;;4.53;1.98;;;8.30;97.50;;;;;;5133347;27;20218;-62
2022/01/05 09:57:10;;;;;;;11.45;4.15;;;8.30;97.50;;;;;;5133641;27;20226;-63
2022/01/05 09:59:39;;;;;;;4.88;2.92;;;8.40;97.30;;;;;;5133052;27;20218;-63
2022/01/05 10:02:07;;;;;;;9.18;3.35;;;8.40;97.40;;;;;;5133789;27;20283;-62
2022/01/05 10:04:35;;;;;;;5.90;2.90;;;8.50;97.10;;;;;;5132945;27;20228;-63
2022/01/05 10:07:02;;;;;;;14.55;2.55;;;8.50;97.00;;;;;;5133179;27;20230;-62
2022/01/05 10:09:29;;;;;;;11.57;2.42;;;8.50;96.90;;;;;;5133583;27;20234;-62
2022/01/05 10:11:56;;;;;;;9.40;3.13;;;8.50;96.80;;;;;;5132935;27;20676;-63
2022/01/05 10:14:23;;;;;;;6.45;2.55;;;8.60;96.70;;;;;;5133284;27;20214;-63
2022/01/05 10:17:06;;;;;;;11.85;3.90;;;8.70;96.50;;;;;;5130980;27;20228;-63
2022/01/05 10:19:34;;;;;;;6.97;3.00;;;8.70;96.70;;;;;;5133593;27;20242;-63
2022/01/05 10:22:01;;;;;;;8.93;2.97;;;8.80;96.40;;;;;;5137438;27;21464;-63
2022/01/05 10:24:56;;;;;;;18.63;8.25;;;8.70;96.50;;;;;;5137466;27;20234;-63
2022/01/05 10:27:25;;;;;;;9.65;5.20;;;8.70;96.30;;;;;;5084973;27;20225;-63
2022/01/05 10:29:54;;;;;;;8.23;5.00;;;8.70;96.10;;;;;;5137597;27;20700;-63
2022/01/05 10:32:22;;;;;;;8.88;3.92;;;8.80;96.30;;;;;;5137065;27;20222;-63
2022/01/05 10:35:12;;;;;;;6.88;3.42;;;8.80;96.20;;;;;;5137679;27;20260;-64
2022/01/05 10:37:41;;;;;;;4.07;3.03;;;8.80;96.20;;;;;;5124813;27;20294;-63
2022/01/05 10:40:19;;;;;;;7.45;3.05;;;8.70;96.30;;;;;;5137305;27;20242;-63
2022/01/05 10:42:47;;;;;;;7.70;3.05;;;8.80;96.10;;;;;;5137139;27;20241;-63
2022/01/05 10:45:17;;;;;;;7.65;3.30;;;8.80;96.10;;;;;;5137169;27;20741;-64
2022/01/05 10:48:02;;;;;;;5.13;3.35;;;8.80;96.10;;;;;;5136766;27;20567;-64
2022/01/05 10:50:29;;;;;;;7.35;3.42;;;8.80;95.80;;;;;;5134612;27;20596;-64
2022/01/05 10:52:57;;;;;;;7.45;3.53;;;8.80;95.80;;;;;;5137064;27;20226;-64
2022/01/05 10:55:26;;;;;;;6.78;3.20;;;8.80;95.90;;;;;;5136618;27;20695;-64
2022/01/05 10:58:02;;;;;;;9.43;3.28;;;8.90;96.10;;;;;;5136934;27;20671;-63
2022/01/05 11:00:35;;;;;;;6.63;3.42;;;8.90;95.80;;;;;;5123267;27;20581;-63
2022/01/05 11:03:21;;;;;;;11.50;4.32;;;8.90;95.90;;;;;;5136815;27;20324;-64
2022/01/05 11:06:01;;;;;;;11.75;4.25;;;8.90;95.70;;;;;;5136681;27;20266;-63
2022/01/05 11:08:28;;;;;;;5.00;3.22;;;8.80;95.80;;;;;;5136282;27;20542;-64
2022/01/05 11:10:54;;;;;;;14.10;4.00;;;8.80;95.40;;;;;;5136547;27;20238;-63
2022/01/05 11:13:21;;;;;;;5.72;3.53;;;8.80;95.50;;;;;;5136742;27;20233;-64
2022/01/05 11:15:48;;;;;;;9.48;3.40;;;8.90;95.30;;;;;;5131423;27;20229;-64
2022/01/05 11:18:18;;;;;;;12.20;4.60;;;8.90;95.30;;;;;;5135922;27;20234;-63
2022/01/05 11:20:49;;;;;;;6.05;2.75;;;8.80;95.20;;;;;;5136254;27;20241;-64
2022/01/05 11:23:17;;;;;;;7.07;2.55;;;8.80;95.20;;;;;;5123300;27;20241;-64
2022/01/05 11:25:45;;;;;;;7.00;2.70;;;8.90;95.20;;;;;;5136018;27;20224;-63
2022/01/05 11:28:13;;;;;;;5.95;2.78;;;8.80;95.20;;;;;;5136709;27;20536;-64
2022/01/05 11:30:42;;;;;;;8.75;3.00;;;8.90;95.40;;;;;;5135820;27;20240;-63
2022/01/05 11:33:09;;;;;;;5.57;2.88;;;8.80;95.10;;;;;;5135712;27;20228;-63
2022/01/05 11:35:38;;;;;;;7.85;3.08;;;8.80;95.20;;;;;;5135880;27;20228;-64
2022/01/05 11:38:06;;;;;;;5.97;2.63;;;8.80;95.00;;;;;;5136045;27;20558;-63
2022/01/05 11:40:35;;;;;;;10.43;3.55;;;8.80;95.10;;;;;;5135473;27;20237;-64
2022/01/05 11:43:04;;;;;;;6.32;2.78;;;8.80;95.20;;;;;;5136216;27;20241;-63
2022/01/05 11:45:34;;;;;;;7.65;3.67;;;8.80;95.10;;;;;;5135240;27;20231;-63
2022/01/05 11:48:22;;;;;;;7.03;2.60;;;8.80;95.00;;;;;;5136075;27;20238;-63
2022/01/05 11:50:51;;;;;;;18.95;8.52;;;8.80;94.90;;;;;;5135450;27;20232;-63
2022/01/05 11:53:38;;;;;;;4.47;3.05;;;8.80;94.90;;;;;;5136163;27;20223;-63
2022/01/05 11:56:17;;;;;;;7.47;2.80;;;8.80;94.70;;;;;;5135678;27;20239;-64
2022/01/05 11:59:02;;;;;;;8.18;4.07;;;8.80;94.70;;;;;;5136091;27;20567;-64
2022/01/05 12:01:35;;;;;;;9.75;4.13;;;8.80;94.80;;;;;;5136136;27;20219;-63
2022/01/05 12:04:13;;;;;;;8.52;3.45;;;8.80;95.00;;;;;;5135741;27;20685;-64
2022/01/05 12:07:07;;;;;;;10.10;4.10;;;8.80;94.70;;;;;;5135465;27;20326;-64
2022/01/05 12:09:37;;;;;;;8.65;3.25;;;8.90;95.00;;;;;;5132580;27;20596;-64
2022/01/05 12:12:32;;;;;;;8.82;2.95;;;8.90;94.70;;;;;;5135775;27;20213;-64
2022/01/05 12:15:00;;;;;;;4.95;2.90;;;8.90;94.70;;;;;;5135441;27;21273;-63
2022/01/05 12:17:28;;;;;;;8.35;3.20;;;8.90;94.80;;;;;;5135457;27;20234;-63
2022/01/05 12:20:10;;;;;;;7.13;4.18;;;9.00;94.90;;;;;;5135111;27;20257;-64
2022/01/05 12:22:39;;;;;;;5.78;3.65;;;9.00;94.90;;;;;;5135093;27;20309;-64
2022/01/05 12:25:09;;;;;;;11.93;5.32;;;9.10;94.70;;;;;;5135538;27;20223;-63
2022/01/05 12:27:38;;;;;;;9.90;4.55;;;9.10;94.90;;;;;;5135112;27;20556;-64
2022/01/05 12:30:42;;;;;;;20.27;8.95;;;9.10;94.80;;;;;;5135451;27;20238;-63
2022/01/05 12:33:19;;;;;;;11.00;4.22;;;9.10;94.60;;;;;;5134936;27;20246;-64
2022/01/05 12:35:52;;;;;;;13.45;5.40;;;9.10;94.40;;;;;;5135046;27;20230;-63
2022/01/05 12:38:51;;;;;;;6.43;3.78;;;9.10;94.60;;;;;;5135347;27;20230;-63
2022/01/05 12:41:35;;;;;;;10.15;4.38;;;9.10;94.50;;;;;;5134848;27;20223;-63
2022/01/05 12:44:28;;;;;;;5.13;3.53;;;9.10;94.50;;;;;;5133576;27;20228;-63
2022/01/05 12:46:57;;;;;;;14.80;6.78;;;9.10;94.10;;;;;;5134749;27;20283;-63
2022/01/05 12:49:26;;;;;;;4.93;3.72;;;9.00;94.40;;;;;;5134833;27;20220;-63
2022/01/05 12:51:56;;;;;;;10.90;6.10;;;9.00;94.40;;;;;;5134823;27;20621;-63
2022/01/05 12:54:26;;;;;;;5.80;3.65;;;9.00;94.70;;;;;;5134730;27;20216;-63
2022/01/05 12:56:55;;;;;;;10.20;3.63;;;8.90;94.60;;;;;;5134965;27;20219;-63
2022/01/05 12:59:28;;;;;;;6.07;3.55;;;8.90;94.40;;;;;;5134379;27;20545;-63
2022/01/05 13:02:00;;;;;;;6.55;2.88;;;8.80;94.40;;;;;;5134841;27;20352;-63
2022/01/05 13:04:27;;;;;;;5.32;2.67;;;8.90;94.50;;;;;;5134519;27;20273;-63
2022/01/05 13:06:58;;;;;;;5.00;2.42;;;8.90;94.60;;;;;;5134581;27;20229;-63